createdAt,value
2018-06-28T00:03:55.289Z,16.20
2018-06-28T00:07:58.141Z,16.20
2018-06-28T00:12:01.013Z,16.20
2018-06-28T00:16:03.944Z,16.10
2018-06-28T00:20:06.785Z,16.10
2018-06-28T00:24:09.587Z,16.00
2018-06-28T00:28:12.444Z,16.00
2018-06-28T00:32:15.296Z,15.90
2018-06-28T00:36:18.164Z,15.90
2018-06-28T00:40:21.049Z,15.80
2018-06-28T00:44:23.901Z,15.80
2018-06-28T00:48:26.734Z,15.80
2018-06-28T00:52:29.577Z,15.80
2018-06-28T00:56:32.435Z,15.70
2018-06-28T01:00:35.261Z,15.70
2018-06-28T01:04:38.160Z,15.70
2018-06-28T01:08:41.093Z,15.70
2018-06-28T01:12:44.022Z,15.70
2018-06-28T01:16:46.866Z,15.60
2018-06-28T01:20:49.739Z,15.60
2018-06-28T01:24:52.621Z,15.50
2018-06-28T01:28:55.468Z,15.50
2018-06-28T01:32:58.316Z,15.40
2018-06-28T01:37:01.156Z,15.30
2018-06-28T01:41:03.971Z,15.30
2018-06-28T01:45:06.735Z,15.30
2018-06-28T01:49:09.511Z,15.20
2018-06-28T01:53:12.282Z,15.20
2018-06-28T01:57:15.108Z,15.10
2018-06-28T02:01:17.898Z,15.00
2018-06-28T02:05:20.700Z,15.00
2018-06-28T02:09:23.543Z,14.90
2018-06-28T02:13:26.401Z,14.80
2018-06-28T02:17:29.180Z,14.70
2018-06-28T02:21:31.981Z,14.70
2018-06-28T02:25:34.937Z,14.60
2018-06-28T02:29:37.774Z,14.60
2018-06-28T02:33:40.564Z,14.50
2018-06-28T02:37:43.406Z,14.40
2018-06-28T02:41:46.252Z,14.40
2018-06-28T02:45:49.068Z,14.30
2018-06-28T02:49:51.881Z,14.30
2018-06-28T02:53:54.691Z,14.30
2018-06-28T02:57:57.549Z,14.20
2018-06-28T03:02:00.333Z,14.20
2018-06-28T03:06:03.180Z,14.10
2018-06-28T03:10:06.053Z,14.10
2018-06-28T03:14:09.009Z,14.00
2018-06-28T03:18:11.913Z,14.10
2018-06-28T03:22:15.065Z,14.20
2018-06-28T03:26:18.067Z,14.00
2018-06-28T03:30:20.869Z,14.00
2018-06-28T03:34:23.725Z,14.00
2018-06-28T03:38:26.528Z,14.00
2018-06-28T03:42:29.365Z,14.00
2018-06-28T03:46:32.181Z,14.00
2018-06-28T03:50:34.967Z,14.10
2018-06-28T03:54:37.789Z,14.20
2018-06-28T03:58:40.581Z,14.10
2018-06-28T04:02:43.377Z,14.10
2018-06-28T04:06:46.189Z,14.20
2018-06-28T04:10:49.029Z,14.20
2018-06-28T04:14:51.949Z,14.30
2018-06-28T04:18:54.751Z,14.40
2018-06-28T04:22:57.971Z,14.40
2018-06-28T04:27:00.822Z,14.60
2018-06-28T04:31:04.111Z,14.80
2018-06-28T04:35:06.965Z,14.90
2018-06-28T04:39:11.796Z,15.20
2018-06-28T04:43:15.254Z,15.30
2018-06-28T04:47:18.076Z,15.40
2018-06-28T04:51:20.877Z,15.60
2018-06-28T04:55:23.745Z,15.80
2018-06-28T04:59:26.546Z,16.10
2018-06-28T05:03:29.429Z,16.30
2018-06-28T05:07:32.258Z,16.60
2018-06-28T05:11:35.160Z,16.90
2018-06-28T05:15:38.029Z,17.20
2018-06-28T05:19:40.840Z,17.40
2018-06-28T05:23:43.704Z,17.60
2018-06-28T05:27:46.645Z,17.80
2018-06-28T05:31:49.589Z,18.00
2018-06-28T05:35:52.649Z,18.20
2018-06-28T05:39:56.100Z,18.50
2018-06-28T05:43:59.005Z,18.70
2018-06-28T05:48:01.969Z,18.80
2018-06-28T05:52:04.916Z,19.10
2018-06-28T05:56:07.779Z,19.30
2018-06-28T06:00:10.692Z,19.40
2018-06-28T06:04:13.619Z,19.70
2018-06-28T06:08:16.489Z,20.20
2018-06-28T06:12:19.313Z,20.60
2018-06-28T06:16:22.138Z,20.70
2018-06-28T06:20:24.978Z,21.10
2018-06-28T06:24:27.864Z,21.20
2018-06-28T06:28:30.641Z,21.40
2018-06-28T06:32:33.527Z,21.70
2018-06-28T06:36:36.407Z,21.90
2018-06-28T06:40:39.249Z,22.60
2018-06-28T06:44:42.141Z,22.90
2018-06-28T06:48:44.996Z,23.50
2018-06-28T06:52:47.901Z,23.60
2018-06-28T06:56:50.695Z,23.80
2018-06-28T07:00:53.563Z,23.60
2018-06-28T07:04:56.367Z,23.60
2018-06-28T07:08:59.239Z,23.90
2018-06-28T07:13:02.128Z,24.50
2018-06-28T07:17:04.973Z,24.70
2018-06-28T07:21:07.993Z,25.20
2018-06-28T07:25:10.962Z,25.10
2018-06-28T07:29:13.750Z,25.50
2018-06-28T07:33:16.542Z,25.50
2018-06-28T07:37:19.340Z,26.00
2018-06-28T07:41:22.109Z,25.90
2018-06-28T07:45:24.910Z,26.00
2018-06-28T07:49:27.713Z,25.90
2018-06-28T07:53:30.520Z,25.80
2018-06-28T07:57:33.509Z,26.70
2018-06-28T08:01:36.389Z,26.70
2018-06-28T08:05:39.258Z,26.80
2018-06-28T08:09:42.129Z,27.00
2018-06-28T08:13:44.901Z,27.50
2018-06-28T08:17:47.737Z,27.20
2018-06-28T08:21:50.583Z,27.00
2018-06-28T08:25:53.434Z,26.90
2018-06-28T08:29:56.313Z,26.60
2018-06-28T08:33:59.102Z,27.10
2018-06-28T08:38:01.870Z,27.40
2018-06-28T08:42:04.747Z,26.60
2018-06-28T08:46:07.619Z,26.90
2018-06-28T08:50:10.475Z,27.30
2018-06-28T08:54:13.366Z,27.10
2018-06-28T08:58:16.545Z,26.80
2018-06-28T09:02:19.396Z,27.30
2018-06-28T09:06:22.221Z,27.60
2018-06-28T09:10:25.067Z,27.80
2018-06-28T09:14:27.842Z,27.80
2018-06-28T09:18:30.653Z,27.70
2018-06-28T09:22:33.557Z,27.60
2018-06-28T09:26:36.385Z,27.60
2018-06-28T09:30:39.198Z,27.50
2018-06-28T09:34:41.997Z,27.30
2018-06-28T09:38:44.787Z,27.20
2018-06-28T09:42:47.712Z,27.60
2018-06-28T09:46:50.528Z,27.00
2018-06-28T09:50:53.397Z,28.30
2018-06-28T09:54:56.356Z,28.10
2018-06-28T09:58:59.199Z,27.40
2018-06-28T10:03:02.092Z,28.60
2018-06-28T10:07:05.077Z,28.40
2018-06-28T10:11:07.979Z,28.10
2018-06-28T10:15:10.850Z,28.40
2018-06-28T10:19:13.747Z,27.80
2018-06-28T10:23:16.639Z,28.90
2018-06-28T10:27:19.534Z,28.50
2018-06-28T10:31:22.451Z,28.60
2018-06-28T10:35:25.297Z,29.00
2018-06-28T10:39:28.258Z,28.90
2018-06-28T10:43:31.113Z,28.70
2018-06-28T10:47:34.029Z,29.40
2018-06-28T10:51:36.840Z,29.80
2018-06-28T10:55:39.640Z,30.20
2018-06-28T10:59:42.468Z,29.80
2018-06-28T11:03:45.398Z,29.50
2018-06-28T11:07:48.206Z,29.60
2018-06-28T11:11:51.033Z,30.00
2018-06-28T11:15:53.869Z,29.90
2018-06-28T11:19:56.723Z,29.50
2018-06-28T11:23:59.538Z,29.30
2018-06-28T11:28:02.435Z,28.60
2018-06-28T11:32:05.328Z,28.90
2018-06-28T11:36:08.124Z,29.00
2018-06-28T11:40:10.909Z,29.20
2018-06-28T11:44:13.808Z,29.60
2018-06-28T11:48:16.667Z,30.20
2018-06-28T11:52:19.527Z,30.00
2018-06-28T11:56:22.607Z,30.20
2018-06-28T12:00:25.503Z,29.80
2018-06-28T12:04:29.377Z,29.50
2018-06-28T12:08:32.170Z,30.30
2018-06-28T12:12:35.074Z,29.60
2018-06-28T12:16:37.874Z,29.40
2018-06-28T12:20:42.140Z,29.60
2018-06-28T12:24:45.110Z,29.80
2018-06-28T12:28:47.902Z,30.10
2018-06-28T12:32:50.727Z,30.00
2018-06-28T12:36:53.591Z,29.50
2018-06-28T12:40:56.450Z,29.20
2018-06-28T12:44:59.288Z,29.20
2018-06-28T12:49:02.121Z,29.70
2018-06-28T12:53:08.127Z,30.10
2018-06-28T12:57:10.930Z,30.10
2018-06-28T13:01:13.803Z,29.90
2018-06-28T13:09:19.685Z,29.90
2018-06-28T13:13:22.459Z,30.10
2018-06-28T13:17:25.317Z,30.00
2018-06-28T13:21:28.303Z,29.70
2018-06-28T13:25:31.082Z,29.90
2018-06-28T13:29:34.280Z,29.30
2018-06-28T13:33:37.183Z,29.30
2018-06-28T13:37:39.977Z,29.40
2018-06-28T13:41:43.228Z,29.20
2018-06-28T13:45:45.654Z,28.40
2018-06-28T13:49:48.612Z,28.90
2018-06-28T13:53:51.565Z,29.10
2018-06-28T13:57:54.515Z,28.90
2018-06-28T14:01:57.344Z,29.00
2018-06-28T14:06:00.145Z,29.30
2018-06-28T14:10:03.032Z,29.40
2018-06-28T14:14:06.013Z,29.20
2018-06-28T14:18:08.866Z,29.20
2018-06-28T14:22:11.692Z,29.20
2018-06-28T14:26:14.539Z,28.20
2018-06-28T14:30:18.157Z,28.30
2018-06-28T14:34:21.032Z,28.70
2018-06-28T14:42:26.670Z,28.40
2018-06-28T14:46:29.527Z,28.10
2018-06-28T14:50:32.337Z,28.40
2018-06-28T14:54:35.165Z,28.60
2018-06-28T14:58:38.010Z,28.80
2018-06-28T15:02:41.160Z,28.80
2018-06-28T15:06:43.958Z,28.60
2018-06-28T15:10:46.841Z,28.50
2018-06-28T15:14:49.683Z,28.80
2018-06-28T15:18:52.510Z,28.80
2018-06-28T15:22:55.340Z,28.60
2018-06-28T15:26:58.133Z,28.30
2018-06-28T15:31:00.955Z,27.80
2018-06-28T15:35:03.955Z,27.90
2018-06-28T15:39:08.350Z,28.00
2018-06-28T15:43:11.127Z,27.70
2018-06-28T15:47:13.962Z,27.30
2018-06-28T15:51:16.822Z,27.10
2018-06-28T15:55:19.803Z,27.20
2018-06-28T15:59:22.683Z,27.40
2018-06-28T16:03:25.508Z,27.50
2018-06-28T16:07:28.710Z,27.40
2018-06-28T16:11:31.536Z,27.40
2018-06-28T16:15:34.453Z,27.30
2018-06-28T16:19:37.566Z,27.40
2018-06-28T16:23:40.418Z,27.50
2018-06-28T16:27:43.811Z,27.30
2018-06-28T16:31:47.319Z,27.30
2018-06-28T16:39:53.091Z,27.20
2018-06-28T16:43:55.957Z,27.10
2018-06-28T16:47:58.806Z,27.00
2018-06-28T16:52:01.990Z,26.90
2018-06-28T16:56:04.845Z,27.00
2018-06-28T17:00:07.899Z,26.80
2018-06-28T17:04:10.870Z,26.90
2018-06-28T17:08:13.771Z,26.70
2018-06-28T17:12:16.601Z,26.50
2018-06-28T17:16:19.643Z,26.50
2018-06-28T17:20:22.501Z,26.50
2018-06-28T17:24:25.376Z,26.50
2018-06-28T17:28:28.240Z,26.40
2018-06-28T17:32:31.035Z,26.30
2018-06-28T17:36:34.107Z,26.30
2018-06-28T17:40:37.316Z,26.30
2018-06-28T17:44:40.731Z,26.20
2018-06-28T17:48:44.194Z,26.10
2018-06-28T17:52:47.368Z,26.00
2018-06-28T17:56:50.249Z,26.00
2018-06-28T18:00:53.252Z,26.00
2018-06-28T18:04:56.235Z,25.90
2018-06-28T18:08:59.191Z,25.80
2018-06-28T18:13:02.154Z,25.70
2018-06-28T18:17:05.110Z,25.60
2018-06-28T18:21:08.226Z,25.50
2018-06-28T18:25:11.078Z,25.40
2018-06-28T18:29:13.933Z,25.40
2018-06-28T18:33:16.699Z,25.30
2018-06-28T18:37:19.499Z,25.20
2018-06-28T18:41:22.393Z,25.10
2018-06-28T18:45:25.197Z,25.00
2018-06-28T18:49:28.041Z,24.80
2018-06-28T18:53:31.176Z,24.70
2018-06-28T18:57:34.029Z,24.60
2018-06-28T19:01:36.819Z,24.50
2018-06-28T19:05:39.651Z,24.40
2018-06-28T19:09:48.130Z,24.20
2018-06-28T19:13:56.929Z,24.10
2018-06-28T19:17:59.902Z,24.10
2018-06-28T19:22:08.406Z,23.90
2018-06-28T19:26:11.355Z,23.80
2018-06-28T19:30:19.924Z,23.60
2018-06-28T19:34:22.949Z,23.50
2018-06-28T19:42:38.675Z,23.30
2018-06-28T19:46:41.711Z,23.10
2018-06-28T19:50:50.074Z,23.00
2018-06-28T19:54:52.879Z,22.80
2018-06-28T19:58:55.734Z,22.70
2018-06-28T20:03:04.042Z,22.70
2018-06-28T20:07:06.875Z,22.50
2018-06-28T20:11:09.736Z,22.40
2018-06-28T20:15:18.180Z,22.30
2018-06-28T20:19:27.502Z,22.30
2018-06-28T20:23:30.641Z,22.10
2018-06-28T20:27:39.264Z,22.00
2018-06-28T20:31:47.577Z,21.90
2018-06-28T20:35:50.490Z,21.90
2018-06-28T20:39:53.459Z,21.70
2018-06-28T20:43:56.244Z,21.60
2018-06-28T20:48:00.128Z,21.50
2018-06-28T20:52:03.109Z,21.40
2018-06-28T20:56:06.055Z,21.40
2018-06-28T21:00:09.780Z,21.30
2018-06-28T21:04:12.893Z,21.20
2018-06-28T21:08:15.834Z,21.10
2018-06-28T21:12:18.682Z,21.10
2018-06-28T21:16:21.520Z,20.90
2018-06-28T21:20:24.352Z,20.80
2018-06-28T21:24:27.137Z,20.80
2018-06-28T21:28:30.085Z,20.70
2018-06-28T21:32:32.920Z,20.60
2018-06-28T21:36:35.951Z,20.50
2018-06-28T21:40:38.990Z,20.40
2018-06-28T21:44:41.803Z,20.30
2018-06-28T21:48:44.749Z,20.30
2018-06-28T21:52:47.921Z,20.20
2018-06-28T21:56:50.748Z,20.10
2018-06-28T22:00:53.568Z,20.00
2018-06-28T22:04:56.356Z,19.90
2018-06-28T22:08:59.259Z,19.90
2018-06-28T22:13:02.150Z,19.70
2018-06-28T22:17:06.164Z,19.60
2018-06-28T22:21:09.005Z,19.60
2018-06-28T22:25:11.896Z,19.50
2018-06-28T22:29:14.665Z,19.40
2018-06-28T22:33:17.692Z,19.30
2018-06-28T22:37:20.503Z,19.30
2018-06-28T22:41:23.253Z,19.20
2018-06-28T22:45:26.009Z,19.10
2018-06-28T22:49:28.874Z,19.00
2018-06-28T22:53:31.695Z,18.90
2018-06-28T22:57:34.433Z,18.90
2018-06-28T23:01:37.334Z,18.80
2018-06-28T23:05:40.209Z,18.70
2018-06-28T23:09:43.136Z,18.60
2018-06-28T23:13:46.222Z,18.50
2018-06-28T23:17:49.160Z,18.50
2018-06-28T23:21:52.028Z,18.40
2018-06-28T23:25:54.947Z,18.30
2018-06-28T23:29:57.780Z,18.30
2018-06-28T23:34:00.669Z,18.20
2018-06-28T23:38:03.474Z,18.10
2018-06-28T23:42:06.434Z,18.10
2018-06-28T23:46:09.180Z,18.00
2018-06-28T23:50:12.027Z,18.00
2018-06-28T23:54:15.031Z,17.90
2018-06-28T23:58:17.736Z,17.90
